createdAt,value
2024-02-14T00:01:50.207Z,-12.16
2024-02-14T00:06:53.076Z,-12.25
2024-02-14T00:11:56.386Z,-12.36
2024-02-14T00:17:00.994Z,-12.27
2024-02-14T00:22:04.068Z,-12.34
2024-02-14T00:27:07.829Z,-12.32
2024-02-14T00:32:11.932Z,-12.31
2024-02-14T00:37:21.182Z,-12.28
2024-02-14T00:42:23.858Z,-12.24
2024-02-14T00:47:28.612Z,-12.31
2024-02-14T00:52:31.557Z,-12.27
2024-02-14T00:57:34.598Z,-12.27
2024-02-14T01:02:37.633Z,-12.32
2024-02-14T01:07:41.205Z,-12.30
2024-02-14T01:12:45.237Z,-12.19
2024-02-14T01:17:49.790Z,-12.13
2024-02-14T01:22:52.765Z,-12.00
2024-02-14T01:28:03.912Z,-11.85
2024-02-14T01:33:07.985Z,-11.75
2024-02-14T01:38:11.010Z,-11.62
2024-02-14T01:43:15.989Z,-11.51
2024-02-14T01:48:20.354Z,-11.42
2024-02-14T01:53:24.932Z,-11.31
2024-02-14T01:58:30.117Z,-11.26
2024-02-14T02:03:37.328Z,-11.19
2024-02-14T02:08:40.288Z,-11.14
2024-02-14T02:13:45.191Z,-11.05
2024-02-14T02:19:10.342Z,-10.89
2024-02-14T02:24:33.333Z,-10.72
2024-02-14T02:29:39.478Z,-10.56
2024-02-14T02:34:42.982Z,-10.45
2024-02-14T02:39:46.447Z,-10.38
2024-02-14T02:45:11.616Z,-10.26
2024-02-14T02:50:35.374Z,-10.13
2024-02-14T02:56:01.544Z,-10.00
2024-02-14T03:01:05.578Z,-9.83
2024-02-14T03:06:29.053Z,-9.66
2024-02-14T03:11:53.330Z,-9.41
2024-02-14T03:17:16.843Z,-9.19
2024-02-14T03:22:20.310Z,-8.96
2024-02-14T03:27:25.622Z,-8.90
2024-02-14T03:32:30.019Z,-8.84
2024-02-14T03:37:33.807Z,-8.89
2024-02-14T03:42:40.374Z,-8.93
2024-02-14T03:47:43.584Z,-8.80
2024-02-14T03:52:46.689Z,-8.72
2024-02-14T03:57:52.446Z,-8.57
2024-02-14T04:03:00.966Z,-8.47
2024-02-14T04:08:04.737Z,-8.33
2024-02-14T04:13:08.091Z,-8.12
2024-02-14T04:18:10.910Z,-8.00
2024-02-14T04:23:14.013Z,-7.93
2024-02-14T04:28:18.105Z,-7.88
2024-02-14T04:33:21.319Z,-7.83
2024-02-14T04:38:24.619Z,-7.74
2024-02-14T04:43:28.773Z,-7.54
2024-02-14T04:48:31.720Z,-7.43
2024-02-14T04:53:35.260Z,-7.24
2024-02-14T04:58:40.439Z,-7.06
2024-02-14T05:03:43.356Z,-6.80
2024-02-14T05:08:46.385Z,-6.73
2024-02-14T05:13:50.552Z,-6.69
2024-02-14T05:18:53.512Z,-6.64
2024-02-14T05:23:57.380Z,-6.67
2024-02-14T05:29:01.410Z,-6.66
2024-02-14T05:34:04.742Z,-6.73
2024-02-14T05:39:07.855Z,-6.82
2024-02-14T05:44:11.610Z,-6.82
2024-02-14T05:49:14.779Z,-6.82
2024-02-14T05:54:17.756Z,-6.65
2024-02-14T05:59:21.037Z,-6.53
2024-02-14T06:04:25.124Z,-6.61
2024-02-14T06:09:29.059Z,-6.52
2024-02-14T06:14:35.584Z,-6.44
2024-02-14T06:19:41.053Z,-6.49
2024-02-14T06:24:45.552Z,-6.35
2024-02-14T06:29:48.748Z,-6.37
2024-02-14T06:34:53.434Z,-6.37
2024-02-14T06:39:56.936Z,-6.46
2024-02-14T06:45:00.277Z,-6.58
2024-02-14T06:50:04.920Z,-6.31
2024-02-14T06:55:10.918Z,-6.26
2024-02-14T07:00:15.580Z,-6.26
2024-02-14T07:05:19.185Z,-6.10
2024-02-14T07:10:22.696Z,-5.88
2024-02-14T07:15:30.504Z,-5.76
2024-02-14T07:20:33.406Z,-5.59
2024-02-14T07:25:36.584Z,-5.65
2024-02-14T07:30:41.862Z,-5.69
2024-02-14T07:35:44.921Z,-5.55
2024-02-14T07:40:47.972Z,-5.56
2024-02-14T07:46:09.598Z,-5.66
2024-02-14T07:51:12.816Z,-5.71
2024-02-14T07:56:15.861Z,-5.70
2024-02-14T08:01:21.775Z,-5.63
2024-02-14T08:06:25.157Z,-5.57
2024-02-14T08:11:28.677Z,-5.44
2024-02-14T08:16:34.409Z,-5.26
2024-02-14T08:21:38.340Z,-5.20
2024-02-14T08:26:41.661Z,-5.23
2024-02-14T08:31:46.264Z,-5.28
2024-02-14T08:36:49.472Z,-5.17
2024-02-14T08:41:52.268Z,-5.15
2024-02-14T08:46:57.536Z,-5.08
2024-02-14T08:52:01.044Z,-5.27
2024-02-14T08:57:04.781Z,-5.51
2024-02-14T09:02:09.603Z,-5.58
2024-02-14T09:07:14.919Z,-5.59
2024-02-14T09:12:17.767Z,-5.62
2024-02-14T09:17:22.484Z,-5.83
2024-02-14T09:22:25.826Z,-5.89
2024-02-14T09:27:29.539Z,-5.85
2024-02-14T09:32:34.149Z,-5.85
2024-02-14T09:37:39.833Z,-5.78
2024-02-14T09:42:49.839Z,-5.70
2024-02-14T09:47:54.155Z,-5.63
2024-02-14T09:52:58.691Z,-5.54
2024-02-14T09:58:05.610Z,-5.52
2024-02-14T10:03:10.552Z,-5.46
2024-02-14T10:08:13.533Z,-5.57
2024-02-14T10:13:18.556Z,-5.63
2024-02-14T10:18:22.180Z,-5.63
2024-02-14T10:23:25.205Z,-5.66
2024-02-14T10:28:36.767Z,-5.64
2024-02-14T10:33:44.666Z,-5.69
2024-02-14T10:38:52.559Z,-5.68
2024-02-14T10:43:56.616Z,-5.71
2024-02-14T10:49:09.998Z,-5.73
2024-02-14T10:54:13.727Z,-5.72
2024-02-14T10:59:23.506Z,-5.74
2024-02-14T11:04:27.001Z,-5.75
2024-02-14T11:09:36.965Z,-5.75
2024-02-14T11:14:45.023Z,-5.77
2024-02-14T11:19:49.033Z,-5.79
2024-02-14T11:24:52.447Z,-5.91
2024-02-14T11:29:56.450Z,-5.79
2024-02-14T11:35:00.659Z,-5.81
2024-02-14T11:40:04.619Z,-5.79
2024-02-14T11:45:12.142Z,-5.78
2024-02-14T11:50:15.297Z,-5.94
2024-02-14T11:55:21.921Z,-5.82
2024-02-14T12:00:26.170Z,-5.80
2024-02-14T12:05:29.771Z,-5.79
2024-02-14T12:10:33.979Z,-5.78
2024-02-14T12:15:47.397Z,-5.75
2024-02-14T12:20:55.235Z,-5.72
2024-02-14T12:26:07.296Z,-5.70
2024-02-14T12:31:10.845Z,-5.84
2024-02-14T12:36:14.200Z,-5.83
2024-02-14T12:41:28.320Z,-5.84
2024-02-14T12:46:32.690Z,-5.83
2024-02-14T12:51:37.705Z,-5.84
2024-02-14T12:56:41.791Z,-5.97
2024-02-14T13:01:46.657Z,-6.21
2024-02-14T13:06:49.982Z,-6.11
2024-02-14T13:11:54.014Z,-6.22
2024-02-14T13:16:58.317Z,-6.42
2024-02-14T13:22:01.704Z,-6.51
2024-02-14T13:27:04.929Z,-6.64
2024-02-14T13:32:10.167Z,-6.76
2024-02-14T13:37:14.331Z,-6.75
2024-02-14T13:42:19.336Z,-6.66
2024-02-14T13:47:24.531Z,-6.70
2024-02-14T13:52:28.026Z,-6.85
2024-02-14T13:57:31.498Z,-7.07
2024-02-14T14:02:38.519Z,-7.12
2024-02-14T14:07:53.800Z,-7.19
2024-02-14T14:13:02.921Z,-7.42
2024-02-14T14:18:07.586Z,-7.53
2024-02-14T14:23:11.469Z,-7.71
2024-02-14T14:28:16.232Z,-8.01
2024-02-14T14:33:19.806Z,-8.32
2024-02-14T14:38:25.195Z,-8.52
2024-02-14T14:43:29.450Z,-8.56
2024-02-14T14:48:33.860Z,-8.62
2024-02-14T14:53:37.702Z,-8.67
2024-02-14T14:58:44.158Z,-8.71
2024-02-14T15:03:47.906Z,-8.89
2024-02-14T15:08:51.594Z,-8.88
2024-02-14T15:13:56.387Z,-8.93
2024-02-14T15:18:59.763Z,-9.17
2024-02-14T15:24:03.028Z,-9.37
2024-02-14T15:29:25.376Z,-9.66
2024-02-14T15:34:29.051Z,-10.00
2024-02-14T15:39:31.796Z,-10.36
2024-02-14T15:44:35.972Z,-10.64
2024-02-14T15:49:39.322Z,-10.88
2024-02-14T15:54:46.070Z,-11.07
2024-02-14T15:59:50.801Z,-11.32
2024-02-14T16:04:54.393Z,-11.50
2024-02-14T16:09:57.833Z,-11.57
2024-02-14T16:15:02.048Z,-11.63
2024-02-14T16:20:10.197Z,-11.75
2024-02-14T16:25:13.432Z,-11.81
2024-02-14T16:30:18.538Z,-11.89
2024-02-14T16:35:22.297Z,-12.10
2024-02-14T16:40:26.437Z,-12.08
2024-02-14T16:45:29.954Z,-12.11
2024-02-14T16:50:32.925Z,-12.21
2024-02-14T16:55:35.863Z,-12.24
2024-02-14T17:00:39.061Z,-12.29
2024-02-14T17:05:44.377Z,-12.24
2024-02-14T17:10:47.306Z,-12.27
2024-02-14T17:15:50.416Z,-12.42
2024-02-14T17:20:54.129Z,-12.48
2024-02-14T17:25:57.764Z,-12.43
2024-02-14T17:31:00.965Z,-12.52
2024-02-14T17:36:04.604Z,-12.71
2024-02-14T17:41:09.500Z,-12.74
2024-02-14T17:46:12.629Z,-12.82
2024-02-14T17:51:17.437Z,-12.88
2024-02-14T17:56:20.474Z,-13.02
2024-02-14T18:01:24.763Z,-13.12
2024-02-14T18:06:27.480Z,-13.17
2024-02-14T18:11:30.412Z,-13.22
2024-02-14T18:16:33.646Z,-13.14
2024-02-14T18:21:36.539Z,-13.14
2024-02-14T18:26:39.979Z,-13.25
2024-02-14T18:31:43.015Z,-13.42
2024-02-14T18:36:47.055Z,-13.53
2024-02-14T18:41:50.464Z,-13.56
2024-02-14T18:46:55.141Z,-13.66
2024-02-14T18:51:58.042Z,-13.78
2024-02-14T18:57:02.121Z,-13.84
2024-02-14T19:02:06.792Z,-13.94
2024-02-14T19:07:09.521Z,-13.98
2024-02-14T19:12:12.463Z,-14.11
2024-02-14T19:17:15.640Z,-14.22
2024-02-14T19:22:18.618Z,-14.28
2024-02-14T19:27:22.043Z,-14.37
2024-02-14T19:32:27.245Z,-14.38
2024-02-14T19:37:31.481Z,-14.52
2024-02-14T19:42:34.563Z,-14.55
2024-02-14T19:47:39.900Z,-14.83
2024-02-14T19:52:43.147Z,-14.79
2024-02-14T19:57:46.998Z,-14.83
2024-02-14T20:02:51.386Z,-14.88
2024-02-14T20:07:54.306Z,-14.97
2024-02-14T20:12:57.377Z,-15.07
2024-02-14T20:18:01.373Z,-15.19
2024-02-14T20:23:05.109Z,-15.32
2024-02-14T20:28:09.157Z,-15.49
2024-02-14T20:33:12.987Z,-15.63
2024-02-14T20:38:15.911Z,-15.70
2024-02-14T20:43:19.386Z,-15.85
2024-02-14T20:48:23.823Z,-15.94
2024-02-14T20:53:27.198Z,-16.09
2024-02-14T20:58:30.474Z,-16.43
2024-02-14T21:03:35.136Z,-16.49
2024-02-14T21:08:38.014Z,-16.80
2024-02-14T21:13:41.833Z,-17.01
2024-02-14T21:18:45.125Z,-17.03
2024-02-14T21:23:48.496Z,-17.08
2024-02-14T21:28:51.775Z,-17.13
2024-02-14T21:33:56.359Z,-17.30
2024-02-14T21:39:00.335Z,-17.49
2024-02-14T21:44:04.383Z,-17.72
2024-02-14T21:49:08.106Z,-17.96
2024-02-14T21:54:11.440Z,-18.15
2024-02-14T21:59:14.615Z,-18.30
2024-02-14T22:04:18.048Z,-18.32
2024-02-14T22:09:22.435Z,-18.63
2024-02-14T22:14:25.659Z,-18.98
2024-02-14T22:19:29.538Z,-19.27
2024-02-14T22:24:33.754Z,-19.41
2024-02-14T22:29:39.635Z,-19.56
2024-02-14T22:34:43.233Z,-19.55
2024-02-14T22:39:46.141Z,-19.46
2024-02-14T22:44:49.683Z,-19.59
2024-02-14T22:49:52.491Z,-19.69
2024-02-14T22:54:55.190Z,-19.83
2024-02-14T22:59:58.522Z,-20.02
2024-02-14T23:05:01.513Z,-20.06
2024-02-14T23:10:06.664Z,-20.11
2024-02-14T23:15:13.923Z,-20.16
2024-02-14T23:20:16.953Z,-20.24
2024-02-14T23:25:20.886Z,-20.39
2024-02-14T23:30:25.404Z,-20.58
2024-02-14T23:35:29.400Z,-20.80
2024-02-14T23:40:32.490Z,-21.10
2024-02-14T23:45:37.444Z,-21.27
2024-02-14T23:50:40.378Z,-21.38
2024-02-14T23:55:43.235Z,-21.51
